PDT,Max TemperatureF,Mean TemperatureF,Min TemperatureF,Max Dew PointF,MeanDew PointF,Min DewpointF,Max Humidity, Mean Humidity, Min Humidity, Max Sea Level PressureIn, Mean Sea Level PressureIn, Min Sea Level PressureIn, Max VisibilityMiles, Mean VisibilityMiles, Min VisibilityMiles, Max Wind SpeedMPH, Mean Wind SpeedMPH, Max Gust SpeedMPH,PrecipitationIn, CloudCover, Events, WindDirDegrees
2013-3-1,64,43,22,35,29,23,92,61,30,30.56,30.45,30.38,10,10,10,8,4,13,0.00,0,,133
2013-3-2,66,47,28,33,27,22,85,52,19,30.37,30.19,30.02,10,10,10,17,7,23,0.00,1,,125
2013-3-3,52,42,32,41,34,23,89,64,38,30.07,30.02,29.95,10,10,6,10,6,14,0.12,7,Rain,234
2013-3-4,51,36,21,27,21,15,77,57,36,30.20,30.11,30.04,10,10,10,17,8,21,0.00,1,,37
2013-3-5,63,43,22,27,23,19,84,52,20,30.04,29.86,29.69,10,10,7,23,7,31,0.00,1,,108
2013-3-6,50,39,27,34,21,7,64,42,19,30.00,29.81,29.62,10,9,2,32,13,46,0.04,4,Rain-Snow,232
2013-3-7,44,33,21,26,20,15,84,59,33,29.99,29.93,29.88,10,10,9,17,8,22,0.00,5,,63
2013-3-8,47,36,25,27,24,19,88,67,45,29.97,29.87,29.81,10,10,10,16,8,22,0.00,5,,357
2013-3-9,52,37,21,18,12,6,74,45,16,30.43,30.23,29.99,10,10,10,22,11,25,0.00,0,,314
2013-3-10,56,34,12,15,10,6,76,46,15,30.53,30.43,30.36,10,10,10,9,4,16,0.00,0,,175
2013-3-11,62,39,16,23,16,9,74,48,21,30.40,30.30,30.21,10,10,10,13,4,17,0.00,0,,153
2013-3-12,68,46,24,31,22,17,78,47,15,30.29,30.21,30.14,10,10,10,15,6,20,0.00,0,,161
2013-3-13,74,49,24,26,20,14,74,43,11,30.29,30.20,30.14,10,10,10,13,5,18,0.00,0,,153
2013-3-14,72,51,29,24,20,14,59,35,11,30.20,30.16,30.10,10,10,10,15,5,18,0.00,0,,190
2013-3-15,69,47,25,25,19,9,68,39,9,30.17,30.08,30.00,10,10,10,17,4,22,0.00,0,,238
2013-3-16,64,44,24,26,20,9,75,44,12,30.09,29.97,29.88,10,10,10,22,8,29,0.00,1,,271
2013-3-17,55,41,27,26,14,7,64,40,16,30.06,30.01,29.94,10,10,10,23,10,32,0.00,0,,264
2013-3-18,59,39,18,17,13,8,67,41,14,30.17,30.08,30.03,10,10,10,18,8,25,0.00,0,,333
2013-3-19,62,48,33,38,21,10,41,32,22,30.15,30.03,29.94,10,10,10,22,8,28,T,5,Rain,119
2013-3-20,65,51,36,42,33,22,92,60,28,29.92,29.85,29.76,10,10,5,31,15,40,0.05,6,Rain,222
2013-3-21,48,34,20,34,21,10,96,60,23,30.10,30.04,29.95,10,10,8,14,4,17,0.04,1,Rain,317
2013-3-22,41,29,16,13,9,5,74,49,23,30.23,30.13,30.06,10,10,10,18,8,24,0.00,4,,328
2013-3-23,46,28,9,12,6,0,83,50,16,30.34,30.25,30.17,10,10,10,10,3,16,0.00,3,,335
2013-3-24,55,32,9,17,10,1,66,43,19,30.25,30.14,30.02,10,10,10,13,4,16,0.00,0,,71
2013-3-25,66,47,27,19,17,11,63,39,14,30.04,29.93,29.82,10,10,10,16,7,20,0.00,2,,126
2013-3-26,60,47,34,28,26,16,64,44,24,29.91,29.86,29.81,10,10,10,21,7,26,T,7,,263
2013-3-27,65,48,31,29,23,19,64,42,19,29.96,29.91,29.86,10,10,10,18,5,23,0.00,4,,256
2013-3-28,64,45,25,31,25,16,68,48,27,30.07,30.01,29.97,10,10,10,21,5,26,T,5,,266
2013-3-29,69,49,29,30,26,22,75,46,17,30.20,30.13,30.08,10,10,10,14,4,18,0.00,1,,331
2013-3-30,73,49,25,30,22,14,74,43,11,30.19,30.09,29.93,10,10,9,24,9,31,0.00,0,,51
2013-3-31,66,52,37,39,33,26,92,59,25,30.02,29.94,29.89,10,9,3,21,13,30,0.08,5,Rain,141